Time;durP1;ratioP1;P1;durP2;ratioP2;P2;SDS_P1;SDS_P2;PMS_P1;PMS_P2;Temp;Humidity;BMP_temperature;BMP_pressure;BME280_temperature;BME280_humidity;BME280_pressure;Samples;Min_cycle;Max_cycle;Signal;HPM_P1;HPM_P2
2024/01/14 00:01:20;;;;;;;23.83;14.80;;;11.00;78.90;;;;;;5091949;28;20387;-43
2024/01/14 00:03:46;;;;;;;26.33;15.70;;;11.10;79.50;;;;;;5091725;28;20529;-42
2024/01/14 00:06:11;;;;;;;27.42;16.40;;;11.40;78.70;;;;;;5091612;28;20481;-40
2024/01/14 00:08:37;;;;;;;26.55;15.90;;;11.50;77.50;;;;;;5091282;28;20024;-43
2024/01/14 00:11:04;;;;;;;23.15;15.25;;;11.50;77.00;;;;;;5091587;28;20501;-43
2024/01/14 00:13:29;;;;;;;25.23;15.50;;;11.40;77.10;;;;;;5091542;28;20055;-43
2024/01/14 00:15:55;;;;;;;23.67;14.73;;;11.30;77.20;;;;;;5091712;28;20480;-44
2024/01/14 00:18:20;;;;;;;24.70;14.65;;;11.20;77.40;;;;;;5092416;28;20034;-43
2024/01/14 00:20:46;;;;;;;24.23;15.13;;;11.10;77.50;;;;;;5091783;28;20036;-43
2024/01/14 00:23:11;;;;;;;27.25;16.60;;;11.00;78.90;;;;;;5091529;28;20043;-43
2024/01/14 00:25:37;;;;;;;26.25;15.48;;;11.10;79.40;;;;;;5091713;28;20035;-43
2024/01/14 00:28:03;;;;;;;24.83;16.13;;;11.40;78.70;;;;;;5091293;28;20073;-43
2024/01/14 00:30:29;;;;;;;24.15;15.63;;;11.50;77.60;;;;;;5091391;28;20047;-43
2024/01/14 00:32:55;;;;;;;23.70;15.30;;;11.40;77.10;;;;;;5091701;28;20475;-41
2024/01/14 00:35:20;;;;;;;24.33;15.40;;;11.30;77.10;;;;;;5091298;28;20047;-43
2024/01/14 00:37:47;;;;;;;26.60;15.13;;;11.20;77.20;;;;;;5091299;28;20032;-44
2024/01/14 00:40:13;;;;;;;25.23;14.15;;;11.20;77.40;;;;;;5091151;28;20035;-43
2024/01/14 00:42:39;;;;;;;28.45;15.60;;;11.00;77.50;;;;;;5091175;28;20039;-42
2024/01/14 00:45:05;;;;;;;24.63;15.77;;;10.90;79.00;;;;;;5091329;28;20020;-44
2024/01/14 00:47:30;;;;;;;27.05;16.17;;;11.10;79.40;;;;;;5091182;28;20024;-40
2024/01/14 00:49:59;;;;;;;24.92;15.65;;;11.40;78.40;;;;;;5091085;28;20090;-43
2024/01/14 00:52:25;;;;;;;24.77;15.00;;;11.50;77.40;;;;;;5090891;28;20450;-43
2024/01/14 00:54:50;;;;;;;24.95;15.48;;;11.40;77.00;;;;;;5091181;28;20103;-43
2024/01/14 00:57:16;;;;;;;23.85;14.45;;;11.30;77.80;;;;;;5091272;28;20024;-38
2024/01/14 00:59:41;;;;;;;24.50;15.10;;;11.20;77.20;;;;;;5091409;28;20032;-43
2024/01/14 01:02:07;;;;;;;23.70;14.73;;;11.10;77.30;;;;;;5091297;28;20375;-43
2024/01/14 01:04:33;;;;;;;24.38;14.43;;;11.00;77.50;;;;;;5091066;28;20020;-43
2024/01/14 01:06:59;;;;;;;25.42;15.05;;;10.90;79.00;;;;;;5090809;28;20052;-43
2024/01/14 01:09:24;;;;;;;24.58;15.75;;;11.10;79.50;;;;;;5091000;28;20035;-44
2024/01/14 01:11:50;;;;;;;26.98;15.30;;;11.40;78.30;;;;;;5091075;28;20020;-43
2024/01/14 01:14:15;;;;;;;23.42;14.60;;;11.50;77.30;;;;;;5091190;28;20462;-43
2024/01/14 01:16:41;;;;;;;24.55;14.75;;;11.40;77.00;;;;;;5089612;28;20111;-43
2024/01/14 01:19:07;;;;;;;23.45;13.93;;;11.30;77.00;;;;;;5091056;28;20024;-40
2024/01/14 01:21:32;;;;;;;23.27;14.55;;;11.20;77.20;;;;;;5092104;28;20551;-43
2024/01/14 01:23:58;;;;;;;22.58;13.85;;;11.10;77.30;;;;;;5094506;28;20119;-43
2024/01/14 01:26:24;;;;;;;25.88;15.27;;;11.10;77.60;;;;;;5094637;28;20023;-41
2024/01/14 01:28:50;;;;;;;25.55;15.65;;;10.90;79.00;;;;;;5095381;28;20099;-43
2024/01/14 01:31:16;;;;;;;24.83;15.90;;;11.10;79.40;;;;;;5095495;28;20028;-40
2024/01/14 01:33:42;;;;;;;26.98;16.20;;;11.40;79.00;;;;;;5094705;28;20504;-43
2024/01/14 01:36:07;;;;;;;24.73;15.45;;;11.50;77.20;;;;;;5094373;28;20111;-40
2024/01/14 01:38:33;;;;;;;24.67;15.43;;;11.40;76.90;;;;;;5094405;28;20563;-43
2024/01/14 01:40:59;;;;;;;25.30;15.27;;;11.30;77.00;;;;;;5094574;28;20395;-43
2024/01/14 01:43:24;;;;;;;24.00;14.02;;;11.20;77.20;;;;;;5094406;28;20031;-41
2024/01/14 01:45:52;;;;;;;22.42;14.68;;;11.10;77.30;;;;;;5094325;28;20023;-43
2024/01/14 01:48:19;;;;;;;25.92;15.95;;;11.00;77.70;;;;;;5094756;28;20443;-42
2024/01/14 01:50:46;;;;;;;24.30;15.60;;;10.90;79.10;;;;;;5094165;28;20469;-43
2024/01/14 01:53:12;;;;;;;25.33;15.98;;;11.10;79.40;;;;;;5094438;28;20092;-43
2024/01/14 01:55:38;;;;;;;25.40;14.75;;;11.40;78.10;;;;;;5094336;28;20058;-43
2024/01/14 01:58:05;;;;;;;24.27;15.15;;;11.50;77.30;;;;;;5093915;28;20028;-43
2024/01/14 02:00:34;;;;;;;27.73;14.77;;;11.40;77.00;;;;;;5094000;28;20489;-43
2024/01/14 02:03:00;;;;;;;25.35;15.25;;;11.30;77.10;;;;;;5093855;28;20032;-40
2024/01/14 02:05:30;;;;;;;23.13;14.77;;;11.20;77.20;;;;;;5093967;28;20020;-40
2024/01/14 02:07:58;;;;;;;25.17;15.70;;;11.10;77.30;;;;;;5094525;28;20071;-44
2024/01/14 02:10:23;;;;;;;25.63;15.88;;;11.00;78.00;;;;;;5094688;28;20166;-44
2024/01/14 02:12:49;;;;;;;22.60;15.10;;;10.90;79.20;;;;;;5093824;28;20094;-41
2024/01/14 02:15:15;;;;;;;25.05;16.20;;;11.20;79.40;;;;;;5093744;28;20419;-43
2024/01/14 02:17:41;;;;;;;25.27;15.25;;;11.40;77.90;;;;;;5093623;28;20028;-45
2024/01/14 02:20:08;;;;;;;26.33;16.30;;;11.40;77.10;;;;;;5093578;28;20398;-44
2024/01/14 02:22:39;;;;;;;25.83;15.77;;;11.40;77.00;;;;;;5093663;28;20099;-44
2024/01/14 02:25:05;;;;;;;22.83;14.73;;;11.30;77.10;;;;;;5093501;28;20028;-45
2024/01/14 02:27:31;;;;;;;22.52;14.35;;;11.20;77.20;;;;;;5093576;28;20020;-39
2024/01/14 02:29:59;;;;;;;28.17;16.30;;;11.10;77.30;;;;;;5093429;28;20085;-43
2024/01/14 02:32:25;;;;;;;25.27;16.25;;;11.00;78.40;;;;;;5093350;28;20024;-43
2024/01/14 02:34:51;;;;;;;26.52;16.63;;;10.90;79.10;;;;;;5093365;28;20085;-44
2024/01/14 02:37:17;;;;;;;27.35;16.42;;;11.20;78.90;;;;;;5093466;28;20448;-44
2024/01/14 02:39:42;;;;;;;25.45;16.45;;;11.40;77.50;;;;;;5093246;28;20107;-44
2024/01/14 02:42:08;;;;;;;24.88;15.65;;;11.40;76.80;;;;;;5093187;28;20020;-43
2024/01/14 02:44:34;;;;;;;24.02;15.48;;;11.40;76.80;;;;;;5093246;28;20020;-40
2024/01/14 02:47:00;;;;;;;22.92;14.73;;;11.20;76.80;;;;;;5093019;28;20466;-45
2024/01/14 02:49:25;;;;;;;23.17;14.93;;;11.20;77.10;;;;;;5092996;28;20084;-44
2024/01/14 02:51:51;;;;;;;24.58;15.90;;;11.00;77.20;;;;;;5093199;28;20016;-44
2024/01/14 02:54:16;;;;;;;24.85;15.07;;;10.90;78.50;;;;;;5092712;28;20393;-40
2024/01/14 02:56:42;;;;;;;27.48;16.55;;;11.00;79.20;;;;;;5093385;28;20588;-43
2024/01/14 02:59:08;;;;;;;26.70;16.25;;;11.30;78.80;;;;;;5093058;28;20095;-44
2024/01/14 03:01:33;;;;;;;25.65;15.43;;;11.50;77.50;;;;;;5092831;28;20048;-44
2024/01/14 03:03:59;;;;;;;24.85;15.40;;;11.40;76.90;;;;;;5092911;28;20482;-42
2024/01/14 03:06:24;;;;;;;23.90;15.40;;;11.30;76.80;;;;;;5093442;28;20028;-44
2024/01/14 03:08:50;;;;;;;24.80;15.50;;;11.20;76.90;;;;;;5092919;28;20416;-44
2024/01/14 03:11:15;;;;;;;25.92;15.15;;;11.20;77.20;;;;;;5092632;28;20399;-40
2024/01/14 03:13:41;;;;;;;26.63;16.30;;;11.10;77.30;;;;;;5092658;28;20042;-44
2024/01/14 03:16:07;;;;;;;27.50;15.77;;;10.90;78.60;;;;;;5093947;28;20020;-43
2024/01/14 03:18:32;;;;;;;25.35;16.10;;;11.00;79.30;;;;;;5092431;28;20106;-42
2024/01/14 03:20:58;;;;;;;27.17;16.50;;;11.30;78.70;;;;;;5093223;28;20020;-44
2024/01/14 03:23:23;;;;;;;26.05;15.40;;;11.50;77.40;;;;;;5092322;28;20066;-44
2024/01/14 03:25:49;;;;;;;27.23;16.38;;;11.40;76.90;;;;;;5092548;28;20028;-44
2024/01/14 03:28:14;;;;;;;23.33;15.02;;;11.40;76.90;;;;;;5092697;28;20028;-42
2024/01/14 03:30:40;;;;;;;25.27;15.27;;;11.20;76.90;;;;;;5092296;28;20063;-43
2024/01/14 03:33:06;;;;;;;23.58;14.80;;;11.10;77.00;;;;;;5092275;28;20038;-44
2024/01/14 03:35:31;;;;;;;25.42;16.13;;;11.00;77.30;;;;;;5092804;28;20025;-44
2024/01/14 03:37:57;;;;;;;24.42;15.18;;;10.90;78.60;;;;;;5092816;28;20731;-44
2024/01/14 03:40:22;;;;;;;29.27;17.40;;;11.00;79.20;;;;;;5092016;28;20036;-43
2024/01/14 03:42:48;;;;;;;25.67;16.35;;;11.30;78.70;;;;;;5092312;28;20024;-43
2024/01/14 03:45:14;;;;;;;26.15;15.73;;;11.40;77.30;;;;;;5091587;28;20031;-39
2024/01/14 03:47:39;;;;;;;24.30;14.93;;;11.40;76.90;;;;;;5092477;28;20073;-44
2024/01/14 03:50:05;;;;;;;21.80;14.43;;;11.30;76.80;;;;;;5092009;28;20031;-43
2024/01/14 03:52:31;;;;;;;21.33;13.82;;;11.20;76.90;;;;;;5091937;28;20288;-44
2024/01/14 03:54:56;;;;;;;24.83;14.50;;;11.20;77.20;;;;;;5092336;28;20020;-44
2024/01/14 03:57:22;;;;;;;23.50;15.43;;;11.00;77.20;;;;;;5091758;28;20032;-44
2024/01/14 03:59:47;;;;;;;25.58;14.63;;;10.90;78.60;;;;;;5093502;28;20031;-43
2024/01/14 04:02:13;;;;;;;24.58;15.73;;;11.00;79.20;;;;;;5091665;28;20099;-44
2024/01/14 04:04:39;;;;;;;23.63;15.48;;;11.30;78.70;;;;;;5092551;28;20497;-39
2024/01/14 04:07:04;;;;;;;25.92;15.40;;;11.40;77.30;;;;;;5092162;28;20028;-44
2024/01/14 04:09:30;;;;;;;21.75;14.00;;;11.40;76.90;;;;;;5091518;28;20103;-43
2024/01/14 04:11:55;;;;;;;22.80;14.10;;;11.30;76.80;;;;;;5091665;28;20024;-44
2024/01/14 04:14:21;;;;;;;24.00;14.18;;;11.20;77.00;;;;;;5091551;28;20024;-41
2024/01/14 04:16:47;;;;;;;22.20;13.75;;;11.10;77.10;;;;;;5091511;28;20530;-39
2024/01/14 04:19:12;;;;;;;22.73;14.68;;;11.00;77.20;;;;;;5091582;28;20052;-43
2024/01/14 04:21:38;;;;;;;23.73;14.90;;;10.90;78.60;;;;;;5091452;28;20055;-41
2024/01/14 04:24:03;;;;;;;24.80;15.30;;;11.00;79.10;;;;;;5091162;28;20039;-44
2024/01/14 04:26:30;;;;;;;22.42;13.75;;;11.30;78.30;;;;;;5090092;28;20030;-43
2024/01/14 04:28:56;;;;;;;21.42;14.18;;;11.50;77.10;;;;;;5091383;28;20028;-43
2024/01/14 04:31:21;;;;;;;23.05;13.98;;;11.40;76.70;;;;;;5091425;28;20547;-42
2024/01/14 04:33:48;;;;;;;20.80;13.25;;;11.40;76.70;;;;;;5091970;28;20032;-43
2024/01/14 04:36:17;;;;;;;21.27;13.27;;;11.30;76.80;;;;;;5091308;28;20054;-43
2024/01/14 04:38:43;;;;;;;18.13;12.50;;;11.20;77.00;;;;;;5091115;28;20024;-43
2024/01/14 04:41:09;;;;;;;22.95;14.68;;;11.20;77.10;;;;;;5091182;28;20371;-42
2024/01/14 04:43:35;;;;;;;21.15;13.85;;;11.10;79.00;;;;;;5091229;28;20020;-44
2024/01/14 04:46:01;;;;;;;23.10;14.07;;;11.30;78.70;;;;;;5091252;28;20040;-43
2024/01/14 04:48:27;;;;;;;23.45;14.05;;;11.50;77.60;;;;;;5091210;28;20036;-41
2024/01/14 04:50:53;;;;;;;23.50;14.32;;;11.60;76.50;;;;;;5091277;28;20032;-42
2024/01/14 04:53:18;;;;;;;20.58;13.32;;;11.60;76.30;;;;;;5091107;28;20020;-44
2024/01/14 04:55:45;;;;;;;19.67;12.18;;;11.50;76.20;;;;;;5091774;28;20020;-44
2024/01/14 04:58:11;;;;;;;21.60;12.43;;;11.50;76.40;;;;;;5095045;28;20020;-44
2024/01/14 05:00:36;;;;;;;21.52;13.55;;;11.40;76.50;;;;;;5095216;28;20039;-44
2024/01/14 05:03:02;;;;;;;24.23;14.70;;;11.30;76.60;;;;;;5095111;28;20028;-45
2024/01/14 05:05:28;;;;;;;22.40;14.43;;;11.20;77.80;;;;;;5095113;28;20056;-44
2024/01/14 05:07:54;;;;;;;22.52;14.68;;;11.40;78.30;;;;;;5094982;28;20452;-44
2024/01/14 05:10:19;;;;;;;23.23;14.90;;;11.60;77.20;;;;;;5095220;28;20039;-41
2024/01/14 05:12:45;;;;;;;22.67;13.75;;;11.70;76.10;;;;;;5094978;28;20026;-44
2024/01/14 05:15:10;;;;;;;19.77;12.52;;;11.70;75.90;;;;;;5094771;28;20056;-44
2024/01/14 05:17:36;;;;;;;23.00;13.63;;;11.60;76.00;;;;;;5095623;28;20023;-45
2024/01/14 05:20:02;;;;;;;23.52;13.20;;;11.50;76.00;;;;;;5094760;28;20020;-41
2024/01/14 05:22:28;;;;;;;24.45;13.80;;;11.40;76.10;;;;;;5095151;28;20500;-44
2024/01/14 05:24:54;;;;;;;24.23;15.32;;;11.30;76.40;;;;;;5094669;28;20077;-44
2024/01/14 05:27:19;;;;;;;24.13;14.60;;;11.20;77.60;;;;;;5094679;28;20020;-42
2024/01/14 05:29:46;;;;;;;25.25;15.02;;;11.40;78.10;;;;;;5094739;28;20359;-44
2024/01/14 05:32:14;;;;;;;25.70;15.32;;;11.70;77.70;;;;;;5094472;28;20036;-44
2024/01/14 05:34:41;;;;;;;22.92;14.27;;;11.70;76.00;;;;;;5094893;28;20070;-44
2024/01/14 05:37:08;;;;;;;23.17;13.88;;;11.60;76.00;;;;;;5094493;28;20020;-44
2024/01/14 05:39:34;;;;;;;26.00;14.65;;;11.50;75.80;;;;;;5094262;28;20043;-44
2024/01/14 05:42:00;;;;;;;24.80;14.30;;;11.50;76.00;;;;;;5094432;28;20032;-44
2024/01/14 05:44:26;;;;;;;21.52;13.52;;;11.40;76.10;;;;;;5094159;28;20028;-44
2024/01/14 05:46:53;;;;;;;28.33;16.00;;;11.30;76.50;;;;;;5094329;28;20081;-44
2024/01/14 05:49:18;;;;;;;26.67;15.60;;;11.20;77.70;;;;;;5094565;28;20023;-44
2024/01/14 05:51:44;;;;;;;24.33;14.10;;;11.40;78.00;;;;;;5094278;28;20020;-44
2024/01/14 05:54:10;;;;;;;28.60;15.50;;;11.60;76.70;;;;;;5094526;28;20552;-40
2024/01/14 05:56:35;;;;;;;28.98;15.80;;;11.70;75.90;;;;;;5094334;28;20107;-44
2024/01/14 05:59:01;;;;;;;25.48;15.00;;;11.60;75.60;;;;;;5094459;28;20073;-44
2024/01/14 06:01:27;;;;;;;25.27;14.35;;;11.50;75.80;;;;;;5094483;28;20028;-44
2024/01/14 06:03:53;;;;;;;23.63;14.88;;;11.40;75.90;;;;;;5094500;28;20024;-44
2024/01/14 06:06:19;;;;;;;27.50;16.17;;;11.30;76.00;;;;;;5093804;28;20020;-44
2024/01/14 06:08:45;;;;;;;26.48;16.00;;;11.20;76.70;;;;;;5093331;28;20386;-39
2024/01/14 06:11:12;;;;;;;30.60;16.27;;;11.10;77.70;;;;;;5094307;28;20063;-45
2024/01/14 06:13:37;;;;;;;29.13;16.63;;;11.40;77.90;;;;;;5093674;28;20121;-37
2024/01/14 06:16:03;;;;;;;26.67;15.30;;;11.60;76.60;;;;;;5093710;28;20490;-44
2024/01/14 06:18:29;;;;;;;26.88;15.80;;;11.60;75.80;;;;;;5093654;28;20386;-41
2024/01/14 06:20:55;;;;;;;26.95;15.48;;;11.60;75.70;;;;;;5094068;28;20035;-44
2024/01/14 06:23:22;;;;;;;26.60;15.20;;;11.50;75.80;;;;;;5093549;28;20017;-42
2024/01/14 06:25:47;;;;;;;25.92;15.13;;;11.40;75.90;;;;;;5093678;28;20050;-44
2024/01/14 06:28:13;;;;;;;28.42;15.95;;;11.30;76.10;;;;;;5093321;28;20107;-44
2024/01/14 06:30:39;;;;;;;31.63;16.83;;;11.20;76.90;;;;;;5093607;28;20428;-44
2024/01/14 06:33:04;;;;;;;28.48;16.10;;;11.10;77.80;;;;;;5093471;28;20297;-44
2024/01/14 06:35:30;;;;;;;32.10;17.98;;;11.40;78.00;;;;;;5093430;28;20533;-45
2024/01/14 06:37:56;;;;;;;29.25;16.95;;;11.60;76.50;;;;;;5093335;28;20032;-42
2024/01/14 06:40:21;;;;;;;27.33;16.02;;;11.60;75.70;;;;;;5093259;28;20137;-44
2024/01/14 06:42:47;;;;;;;26.33;15.57;;;11.50;75.60;;;;;;5093081;28;20386;-44
2024/01/14 06:45:13;;;;;;;27.83;15.23;;;11.40;75.80;;;;;;5093444;28;20032;-44
2024/01/14 06:47:40;;;;;;;27.17;14.63;;;11.40;75.90;;;;;;5093179;28;20654;-42
2024/01/14 06:50:07;;;;;;;32.00;16.77;;;11.20;76.00;;;;;;5093077;28;20098;-43
2024/01/14 06:52:33;;;;;;;30.52;18.00;;;11.10;77.00;;;;;;5093214;28;20028;-44
2024/01/14 06:54:58;;;;;;;29.50;16.40;;;11.10;77.80;;;;;;5092788;28;20038;-43
2024/01/14 06:57:24;;;;;;;29.02;17.23;;;11.40;77.80;;;;;;5092940;28;20386;-42
2024/01/14 06:59:50;;;;;;;31.02;16.45;;;11.60;76.40;;;;;;5092795;28;20028;-41
2024/01/14 07:02:15;;;;;;;32.13;16.75;;;11.60;75.80;;;;;;5092830;28;20050;-44
2024/01/14 07:04:41;;;;;;;30.13;16.80;;;11.50;75.70;;;;;;5092818;28;20016;-42
2024/01/14 07:07:08;;;;;;;30.27;15.75;;;11.40;75.80;;;;;;5092719;28;20444;-44
2024/01/14 07:09:34;;;;;;;28.73;16.20;;;11.30;75.90;;;;;;5092537;28;20125;-42
2024/01/14 07:12:00;;;;;;;27.45;15.65;;;11.20;76.10;;;;;;5092737;28;20024;-44
2024/01/14 07:14:26;;;;;;;29.25;16.63;;;11.00;77.30;;;;;;5093054;28;20020;-43
2024/01/14 07:16:52;;;;;;;28.65;16.02;;;11.10;77.90;;;;;;5092558;28;20016;-44
2024/01/14 07:19:17;;;;;;;32.65;17.13;;;11.40;77.50;;;;;;5091452;28;20474;-42
2024/01/14 07:21:43;;;;;;;30.00;16.40;;;11.50;76.20;;;;;;5092436;28;20110;-44
2024/01/14 07:24:09;;;;;;;29.10;15.95;;;11.50;75.70;;;;;;5092551;28;20058;-39
2024/01/14 07:26:35;;;;;;;25.95;14.45;;;11.40;75.70;;;;;;5092689;28;20047;-44
2024/01/14 07:29:01;;;;;;;28.10;15.57;;;11.30;75.80;;;;;;5092316;28;20027;-44
2024/01/14 07:31:27;;;;;;;26.15;15.23;;;11.20;75.90;;;;;;5092398;28;20031;-42
2024/01/14 07:33:53;;;;;;;29.25;16.17;;;11.10;76.10;;;;;;5092271;28;20050;-43
2024/01/14 07:36:19;;;;;;;34.13;17.42;;;11.00;77.40;;;;;;5092101;28;20056;-44
2024/01/14 07:38:45;;;;;;;28.98;17.02;;;11.10;78.00;;;;;;5092003;28;20032;-44
2024/01/14 07:41:15;;;;;;;27.60;15.45;;;11.40;77.40;;;;;;5092297;28;20024;-44
2024/01/14 07:43:41;;;;;;;26.73;15.60;;;11.50;76.10;;;;;;5092039;28;20410;-45
2024/01/14 07:46:07;;;;;;;31.73;17.38;;;11.50;75.80;;;;;;5092009;28;20032;-43
2024/01/14 07:48:33;;;;;;;27.70;16.02;;;11.40;75.80;;;;;;5091921;28;20035;-42
2024/01/14 07:51:00;;;;;;;28.77;16.20;;;11.30;75.90;;;;;;5091843;28;20026;-44
2024/01/14 07:53:25;;;;;;;26.02;15.75;;;11.30;76.00;;;;;;5091800;28;20039;-44
2024/01/14 07:55:51;;;;;;;31.10;17.00;;;11.20;76.20;;;;;;5092020;28;20024;-44
2024/01/14 07:58:17;;;;;;;30.05;17.52;;;11.10;77.30;;;;;;5091696;28;20436;-44
2024/01/14 08:00:44;;;;;;;30.48;16.98;;;11.20;77.70;;;;;;5091766;28;20103;-44
2024/01/14 08:03:10;;;;;;;27.83;16.42;;;11.60;76.70;;;;;;5091739;28;20020;-41
2024/01/14 08:05:37;;;;;;;29.35;16.75;;;11.70;75.60;;;;;;5091912;28;20070;-42
2024/01/14 08:08:05;;;;;;;28.60;17.00;;;11.60;75.20;;;;;;5091927;28;20313;-44
2024/01/14 08:10:31;;;;;;;29.13;16.33;;;11.60;75.30;;;;;;5091631;28;20024;-44
2024/01/14 08:12:57;;;;;;;26.92;15.88;;;11.50;75.30;;;;;;5091529;28;20038;-45
2024/01/14 08:15:23;;;;;;;28.02;15.38;;;11.50;75.40;;;;;;5091640;28;20107;-44
2024/01/14 08:17:48;;;;;;;27.30;16.52;;;11.50;75.60;;;;;;5092463;28;20549;-44
2024/01/14 08:20:14;;;;;;;28.00;16.63;;;11.40;76.70;;;;;;5091280;28;20084;-40
2024/01/14 08:22:40;;;;;;;27.75;16.73;;;11.50;76.90;;;;;;5091468;28;20020;-43
2024/01/14 08:25:07;;;;;;;27.63;15.95;;;11.80;75.80;;;;;;5091327;28;20024;-44
2024/01/14 08:27:33;;;;;;;28.92;16.00;;;11.90;74.90;;;;;;5091367;28;20029;-44
2024/01/14 08:29:59;;;;;;;27.25;15.82;;;11.90;74.60;;;;;;5091034;28;20085;-40
2024/01/14 08:32:25;;;;;;;27.88;15.20;;;11.80;74.60;;;;;;5091320;28;20020;-44
2024/01/14 08:34:51;;;;;;;25.88;14.52;;;11.80;74.70;;;;;;5091253;28;20028;-44
2024/01/14 08:37:16;;;;;;;25.60;14.00;;;11.80;74.80;;;;;;5091255;28;20020;-44
2024/01/14 08:39:42;;;;;;;27.92;15.80;;;11.70;74.90;;;;;;5091074;28;20028;-42
2024/01/14 08:42:08;;;;;;;26.65;15.57;;;11.60;76.00;;;;;;5089922;28;20028;-44
2024/01/14 08:44:34;;;;;;;27.55;15.38;;;11.80;76.30;;;;;;5091280;28;20020;-44
2024/01/14 08:47:01;;;;;;;26.27;15.32;;;12.10;75.10;;;;;;5091275;28;20492;-43
2024/01/14 08:49:29;;;;;;;27.02;15.23;;;12.10;74.20;;;;;;5091456;28;20355;-42
2024/01/14 08:51:56;;;;;;;27.15;15.95;;;12.10;74.10;;;;;;5091230;28;20028;-44
2024/01/14 08:54:24;;;;;;;28.02;15.05;;;12.00;74.10;;;;;;5091109;28;20103;-44
2024/01/14 08:56:50;;;;;;;24.17;14.15;;;12.10;74.20;;;;;;5091124;28;20031;-44
2024/01/14 08:59:16;;;;;;;25.42;15.38;;;12.00;74.30;;;;;;5091305;28;20030;-44
2024/01/14 09:01:41;;;;;;;25.50;15.63;;;12.00;74.70;;;;;;5091491;28;20404;-44
2024/01/14 09:04:07;;;;;;;23.20;15.07;;;11.90;75.40;;;;;;5090964;28;20032;-44
2024/01/14 09:06:35;;;;;;;30.63;16.58;;;12.10;75.70;;;;;;5091101;28;20453;-43
2024/01/14 09:09:00;;;;;;;29.58;16.38;;;12.30;74.40;;;;;;5091195;28;20111;-38
2024/01/14 09:11:26;;;;;;;26.27;15.80;;;12.40;73.80;;;;;;5091080;28;20111;-44
2024/01/14 09:13:51;;;;;;;24.20;14.05;;;12.30;73.70;;;;;;5090991;28;20040;-41
2024/01/14 09:16:17;;;;;;;25.70;15.10;;;12.30;73.70;;;;;;5090934;28;20028;-44
2024/01/14 09:18:42;;;;;;;23.63;14.27;;;12.30;73.70;;;;;;5091279;28;20478;-41
2024/01/14 09:21:08;;;;;;;23.58;15.30;;;12.20;73.70;;;;;;5090900;28;20078;-44
2024/01/14 09:23:34;;;;;;;26.13;15.38;;;12.20;74.10;;;;;;5090697;28;20027;-44
2024/01/14 09:25:59;;;;;;;28.58;15.00;;;12.20;74.90;;;;;;5090880;28;20081;-40
2024/01/14 09:28:25;;;;;;;28.33;15.85;;;12.30;74.90;;;;;;5090799;28;20493;-45
2024/01/14 09:30:51;;;;;;;24.30;15.20;;;12.60;73.70;;;;;;5090907;28;20037;-44
2024/01/14 09:33:17;;;;;;;24.48;14.18;;;12.60;73.10;;;;;;5090702;28;20032;-44
2024/01/14 09:35:43;;;;;;;25.17;15.05;;;12.60;73.10;;;;;;5090874;28;20070;-43
2024/01/14 09:38:09;;;;;;;23.73;14.38;;;12.60;73.10;;;;;;5090683;28;20409;-45
2024/01/14 09:40:35;;;;;;;25.13;14.25;;;12.60;73.10;;;;;;5090716;28;20024;-44
2024/01/14 09:43:06;;;;;;;24.40;14.75;;;12.60;73.20;;;;;;5093349;28;20032;-44
2024/01/14 09:45:39;;;;;;;24.58;15.15;;;12.50;73.40;;;;;;5094667;28;20047;-42
2024/01/14 09:48:05;;;;;;;25.05;14.82;;;12.50;74.10;;;;;;5095415;28;20020;-44
2024/01/14 09:50:32;;;;;;;26.98;15.52;;;12.70;74.20;;;;;;5094327;28;20035;-40
2024/01/14 09:53:00;;;;;;;26.08;14.93;;;12.90;72.90;;;;;;5094085;28;20051;-41
2024/01/14 09:55:26;;;;;;;25.17;15.25;;;12.90;72.40;;;;;;5095119;28;20058;-44
2024/01/14 09:57:52;;;;;;;21.90;13.73;;;12.80;72.40;;;;;;5094831;28;20516;-45
2024/01/14 10:00:22;;;;;;;23.80;14.02;;;12.90;72.50;;;;;;5094176;28;20367;-42
2024/01/14 10:02:48;;;;;;;24.67;13.93;;;12.90;72.60;;;;;;5095183;28;20028;-45
2024/01/14 10:05:14;;;;;;;22.83;13.90;;;12.90;72.50;;;;;;5094007;28;20024;-42
2024/01/14 10:07:41;;;;;;;23.67;14.98;;;12.90;73.00;;;;;;5094420;28;20062;-43
2024/01/14 10:10:07;;;;;;;23.52;14.98;;;12.80;73.50;;;;;;5093924;28;20023;-44
2024/01/14 10:12:34;;;;;;;24.77;15.45;;;13.00;73.60;;;;;;5094065;28;20028;-42
2024/01/14 10:15:00;;;;;;;24.45;14.45;;;13.20;72.40;;;;;;5094145;28;20688;-44
2024/01/14 10:17:27;;;;;;;23.73;13.77;;;13.20;72.00;;;;;;5093730;28;20105;-44
2024/01/14 10:19:59;;;;;;;21.70;13.38;;;13.20;72.00;;;;;;5093733;28;20432;-42
2024/01/14 10:22:28;;;;;;;21.02;13.27;;;13.30;72.10;;;;;;5093652;28;20024;-44
2024/01/14 10:24:55;;;;;;;20.58;12.57;;;13.30;72.80;;;;;;5093795;28;20030;-42
2024/01/14 10:27:23;;;;;;;20.13;12.93;;;13.30;72.00;;;;;;5093408;28;20355;-44
2024/01/14 10:29:52;;;;;;;24.08;14.85;;;13.30;72.00;;;;;;5093909;28;20028;-45
2024/01/14 10:32:19;;;;;;;22.92;14.32;;;13.20;72.70;;;;;;5093463;28;20027;-44
2024/01/14 10:34:45;;;;;;;26.10;15.32;;;13.40;73.00;;;;;;5094521;28;20198;-40
2024/01/14 10:37:11;;;;;;;21.02;13.38;;;13.60;71.80;;;;;;5093369;28;20115;-44
2024/01/14 10:39:38;;;;;;;23.05;13.63;;;13.60;71.40;;;;;;5093749;28;20090;-45
2024/01/14 10:42:04;;;;;;;23.80;14.02;;;13.60;71.40;;;;;;5093906;28;20045;-44
2024/01/14 10:44:31;;;;;;;20.67;13.40;;;13.70;71.40;;;;;;5093505;28;20020;-45
2024/01/14 10:47:00;;;;;;;23.70;13.85;;;13.70;71.30;;;;;;5082034;28;20093;-45
2024/01/14 10:49:26;;;;;;;19.83;13.07;;;13.80;71.20;;;;;;5093563;28;20020;-43
2024/01/14 10:52:09;;;;;;;20.08;12.07;;;13.80;71.20;;;;;;5093065;28;20032;-45
2024/01/14 10:54:44;;;;;;;19.15;11.90;;;13.90;71.10;;;;;;5092820;28;20032;-42
2024/01/14 10:57:34;;;;;;;19.55;12.02;;;13.90;71.10;;;;;;5093024;28;20020;-45
2024/01/14 11:00:08;;;;;;;18.27;11.77;;;13.90;71.00;;;;;;5092845;28;20020;-40
2024/01/14 11:02:38;;;;;;;18.27;12.02;;;13.90;71.00;;;;;;5093926;28;20020;-45
2024/01/14 11:05:08;;;;;;;19.13;11.98;;;14.00;71.00;;;;;;5093289;28;20387;-45
2024/01/14 11:07:34;;;;;;;17.50;11.93;;;14.00;71.00;;;;;;5093099;28;20107;-42
2024/01/14 11:10:02;;;;;;;19.38;12.13;;;14.00;71.00;;;;;;5093093;28;20032;-44
2024/01/14 11:12:39;;;;;;;17.17;11.90;;;14.00;71.00;;;;;;5093893;28;20397;-44
2024/01/14 11:15:22;;;;;;;19.67;11.65;;;14.00;71.00;;;;;;5093232;28;20032;-42
2024/01/14 11:17:56;;;;;;;17.20;10.82;;;14.10;71.10;;;;;;5092727;28;20032;-44
2024/01/14 11:20:27;;;;;;;17.08;11.23;;;14.10;71.10;;;;;;5092442;28;20024;-44
2024/01/14 11:22:53;;;;;;;19.05;11.55;;;14.10;71.00;;;;;;5093784;28;20478;-45
2024/01/14 11:25:22;;;;;;;19.00;11.52;;;14.10;71.10;;;;;;5092909;28;20050;-44
2024/01/14 11:27:48;;;;;;;19.02;11.48;;;14.20;71.10;;;;;;5092192;28;20081;-45
2024/01/14 11:30:18;;;;;;;17.95;11.18;;;14.20;71.10;;;;;;5092293;28;20390;-44
2024/01/14 11:32:43;;;;;;;18.58;10.98;;;14.20;71.00;;;;;;5092981;28;20421;-43
2024/01/14 11:35:10;;;;;;;18.02;11.50;;;14.20;71.00;;;;;;5065087;28;20123;-44
2024/01/14 11:37:37;;;;;;;18.35;11.48;;;14.30;71.10;;;;;;5092722;28;20051;-44
2024/01/14 11:40:08;;;;;;;16.38;10.70;;;14.30;71.80;;;;;;5093091;28;20024;-44
2024/01/14 11:42:35;;;;;;;17.75;11.10;;;14.30;71.00;;;;;;5092481;28;20024;-39
2024/01/14 11:45:11;;;;;;;16.95;11.32;;;14.40;71.00;;;;;;5092487;28;20051;-43
2024/01/14 11:47:47;;;;;;;16.30;10.60;;;14.40;70.90;;;;;;5092410;28;20020;-44
2024/01/14 11:50:16;;;;;;;17.50;11.18;;;14.50;70.90;;;;;;5092155;28;20046;-44
2024/01/14 11:52:46;;;;;;;18.25;11.50;;;14.50;70.80;;;;;;5092643;28;20106;-42
2024/01/14 11:55:14;;;;;;;16.73;10.77;;;14.50;70.70;;;;;;5092176;28;20028;-40
2024/01/14 11:57:40;;;;;;;18.48;11.07;;;14.60;70.70;;;;;;5091748;28;20042;-41
2024/01/14 12:00:09;;;;;;;15.55;9.98;;;14.60;70.60;;;;;;5091698;28;20478;-45
2024/01/14 12:02:35;;;;;;;16.23;10.50;;;14.60;70.60;;;;;;5091724;28;20016;-43
2024/01/14 12:05:20;;;;;;;17.08;10.60;;;14.70;70.60;;;;;;5091621;28;20076;-44
2024/01/14 12:07:47;;;;;;;16.77;10.75;;;14.70;70.50;;;;;;5091656;28;20032;-44
2024/01/14 12:10:14;;;;;;;16.45;10.50;;;14.70;70.40;;;;;;5091667;28;20140;-42
2024/01/14 12:12:41;;;;;;;16.80;10.77;;;14.70;70.40;;;;;;5091677;28;20020;-45
2024/01/14 12:15:08;;;;;;;16.08;10.18;;;14.70;70.30;;;;;;5091961;28;20063;-40
2024/01/14 12:17:33;;;;;;;15.55;10.80;;;14.80;70.30;;;;;;5091474;28;20020;-44
2024/01/14 12:19:59;;;;;;;15.48;10.48;;;14.80;70.20;;;;;;5092070;28;20042;-41
2024/01/14 12:22:25;;;;;;;18.10;10.50;;;14.80;70.20;;;;;;5091825;28;20058;-44
2024/01/14 12:24:51;;;;;;;16.00;10.15;;;14.80;70.10;;;;;;5091374;28;20110;-44